sensor_id;sensor_type;location;lat;lon;timestamp;temperature;humidity
66190;DHT22;52992;52.084;5.412;2022-09-09T00:04:23;20.60;70.00
66190;DHT22;52992;52.084;5.412;2022-09-09T00:09:27;20.60;70.10
66190;DHT22;52992;52.084;5.412;2022-09-09T00:12:01;20.70;70.20
66190;DHT22;52992;52.084;5.412;2022-09-09T00:17:12;20.70;70.20
66190;DHT22;52992;52.084;5.412;2022-09-09T00:19:46;20.70;70.10
66190;DHT22;52992;52.084;5.412;2022-09-09T00:22:19;20.60;70.10
66190;DHT22;52992;52.084;5.412;2022-09-09T00:24:54;20.60;69.80
66190;DHT22;52992;52.084;5.412;2022-09-09T00:29:55;20.60;69.90
66190;DHT22;52992;52.084;5.412;2022-09-09T00:32:25;20.60;70.20
66190;DHT22;52992;52.084;5.412;2022-09-09T00:35:46;20.60;69.90
66190;DHT22;52992;52.084;5.412;2022-09-09T00:37:54;20.50;70.40
66190;DHT22;52992;52.084;5.412;2022-09-09T00:40:35;20.50;70.20
66190;DHT22;52992;52.084;5.412;2022-09-09T00:43:32;20.50;70.10
66190;DHT22;52992;52.084;5.412;2022-09-09T00:46:21;20.50;70.60
66190;DHT22;52992;52.084;5.412;2022-09-09T00:54:14;20.40;70.00
66190;DHT22;52992;52.084;5.412;2022-09-09T00:57:00;20.40;70.20
66190;DHT22;52992;52.084;5.412;2022-09-09T00:59:43;20.40;70.30
66190;DHT22;52992;52.084;5.412;2022-09-09T01:02:27;20.40;70.30
66190;DHT22;52992;52.084;5.412;2022-09-09T01:05:00;20.30;70.40
66190;DHT22;52992;52.084;5.412;2022-09-09T01:07:28;20.40;70.00
66190;DHT22;52992;52.084;5.412;2022-09-09T01:10:11;20.40;69.70
66190;DHT22;52992;52.084;5.412;2022-09-09T01:12:42;20.30;70.20
66190;DHT22;52992;52.084;5.412;2022-09-09T01:15:21;20.20;69.80
66190;DHT22;52992;52.084;5.412;2022-09-09T01:20:31;20.30;69.90
66190;DHT22;52992;52.084;5.412;2022-09-09T01:26:30;20.20;70.20
66190;DHT22;52992;52.084;5.412;2022-09-09T01:29:02;20.20;69.80
66190;DHT22;52992;52.084;5.412;2022-09-09T01:34:11;20.20;69.80
66190;DHT22;52992;52.084;5.412;2022-09-09T01:36:57;20.20;69.70
66190;DHT22;52992;52.084;5.412;2022-09-09T01:39:26;20.20;70.20
66190;DHT22;52992;52.084;5.412;2022-09-09T01:42:01;20.20;69.70
66190;DHT22;52992;52.084;5.412;2022-09-09T01:44:29;20.20;69.70
66190;DHT22;52992;52.084;5.412;2022-09-09T01:46:56;20.20;69.50
66190;DHT22;52992;52.084;5.412;2022-09-09T01:49:24;20.20;69.60
66190;DHT22;52992;52.084;5.412;2022-09-09T01:51:54;20.10;69.50
66190;DHT22;52992;52.084;5.412;2022-09-09T01:54:31;20.10;69.70
66190;DHT22;52992;52.084;5.412;2022-09-09T02:05:36;20.10;69.30
66190;DHT22;52992;52.084;5.412;2022-09-09T02:08:09;20.10;69.40
66190;DHT22;52992;52.084;5.412;2022-09-09T02:11:14;20.00;69.20
66190;DHT22;52992;52.084;5.412;2022-09-09T02:14:05;20.00;69.90
66190;DHT22;52992;52.084;5.412;2022-09-09T02:17:01;20.00;69.30
66190;DHT22;52992;52.084;5.412;2022-09-09T02:19:53;20.00;69.80
66190;DHT22;52992;52.084;5.412;2022-09-09T02:22:43;20.00;69.10
66190;DHT22;52992;52.084;5.412;2022-09-09T02:25:15;20.00;69.00
66190;DHT22;52992;52.084;5.412;2022-09-09T02:27:46;20.00;68.80
66190;DHT22;52992;52.084;5.412;2022-09-09T02:30:14;20.00;69.60
66190;DHT22;52992;52.084;5.412;2022-09-09T02:32:49;20.00;68.70
66190;DHT22;52992;52.084;5.412;2022-09-09T02:35:23;20.00;68.70
66190;DHT22;52992;52.084;5.412;2022-09-09T02:37:53;20.00;68.90
66190;DHT22;52992;52.084;5.412;2022-09-09T02:40:22;19.90;68.70
66190;DHT22;52992;52.084;5.412;2022-09-09T02:42:56;19.90;68.50
66190;DHT22;52992;52.084;5.412;2022-09-09T02:45:27;19.90;68.40
66190;DHT22;52992;52.084;5.412;2022-09-09T02:48:26;19.90;68.60
66190;DHT22;52992;52.084;5.412;2022-09-09T02:51:06;19.90;69.00
66190;DHT22;52992;52.084;5.412;2022-09-09T02:56:24;19.80;68.70
66190;DHT22;52992;52.084;5.412;2022-09-09T02:58:54;19.80;68.40
66190;DHT22;52992;52.084;5.412;2022-09-09T03:01:23;19.80;68.30
66190;DHT22;52992;52.084;5.412;2022-09-09T03:03:50;19.80;68.40
66190;DHT22;52992;52.084;5.412;2022-09-09T03:06:17;19.80;68.50
66190;DHT22;52992;52.084;5.412;2022-09-09T03:08:49;19.80;68.60
66190;DHT22;52992;52.084;5.412;2022-09-09T03:11:21;19.80;68.40
66190;DHT22;52992;52.084;5.412;2022-09-09T03:13:48;19.80;68.40
66190;DHT22;52992;52.084;5.412;2022-09-09T03:16:16;19.80;68.40
66190;DHT22;52992;52.084;5.412;2022-09-09T03:18:46;19.70;68.30
66190;DHT22;52992;52.084;5.412;2022-09-09T03:21:13;19.70;68.40
66190;DHT22;52992;52.084;5.412;2022-09-09T03:23:41;19.70;68.50
66190;DHT22;52992;52.084;5.412;2022-09-09T03:26:08;19.70;68.50
66190;DHT22;52992;52.084;5.412;2022-09-09T03:28:42;19.70;68.70
66190;DHT22;52992;52.084;5.412;2022-09-09T03:31:10;19.70;68.30
66190;DHT22;52992;52.084;5.412;2022-09-09T03:33:40;19.70;68.30
66190;DHT22;52992;52.084;5.412;2022-09-09T03:36:10;19.70;68.30
66190;DHT22;52992;52.084;5.412;2022-09-09T03:38:37;19.60;68.10
66190;DHT22;52992;52.084;5.412;2022-09-09T03:41:05;19.70;68.20
66190;DHT22;52992;52.084;5.412;2022-09-09T03:43:33;19.70;68.00
66190;DHT22;52992;52.084;5.412;2022-09-09T03:46:00;19.70;68.70
66190;DHT22;52992;52.084;5.412;2022-09-09T03:48:28;19.60;67.70
66190;DHT22;52992;52.084;5.412;2022-09-09T03:50:56;19.70;67.90
66190;DHT22;52992;52.084;5.412;2022-09-09T03:53:25;19.60;67.80
66190;DHT22;52992;52.084;5.412;2022-09-09T03:55:54;19.60;67.90
66190;DHT22;52992;52.084;5.412;2022-09-09T03:58:24;19.60;67.80
66190;DHT22;52992;52.084;5.412;2022-09-09T04:00:57;19.60;67.70
66190;DHT22;52992;52.084;5.412;2022-09-09T04:03:25;19.60;67.70
66190;DHT22;52992;52.084;5.412;2022-09-09T04:05:56;19.60;67.50
66190;DHT22;52992;52.084;5.412;2022-09-09T04:08:25;19.60;67.50
66190;DHT22;52992;52.084;5.412;2022-09-09T04:10:54;19.60;67.30
66190;DHT22;52992;52.084;5.412;2022-09-09T04:13:25;19.50;67.20
66190;DHT22;52992;52.084;5.412;2022-09-09T04:15:56;19.50;67.30
66190;DHT22;52992;52.084;5.412;2022-09-09T04:18:24;19.50;67.20
66190;DHT22;52992;52.084;5.412;2022-09-09T04:20:52;19.50;67.10
66190;DHT22;52992;52.084;5.412;2022-09-09T04:23:22;19.50;67.10
66190;DHT22;52992;52.084;5.412;2022-09-09T04:25:52;19.50;67.20
66190;DHT22;52992;52.084;5.412;2022-09-09T04:28:21;19.50;67.20
66190;DHT22;52992;52.084;5.412;2022-09-09T04:30:48;19.50;67.30
66190;DHT22;52992;52.084;5.412;2022-09-09T04:33:15;19.50;67.10
66190;DHT22;52992;52.084;5.412;2022-09-09T04:35:45;19.50;67.10
66190;DHT22;52992;52.084;5.412;2022-09-09T04:38:14;19.50;67.20
66190;DHT22;52992;52.084;5.412;2022-09-09T04:40:46;19.60;67.10
66190;DHT22;52992;52.084;5.412;2022-09-09T04:43:13;19.60;67.10
66190;DHT22;52992;52.084;5.412;2022-09-09T04:45:48;19.60;67.00
66190;DHT22;52992;52.084;5.412;2022-09-09T04:48:15;19.60;66.90
66190;DHT22;52992;52.084;5.412;2022-09-09T04:50:42;19.60;66.80
66190;DHT22;52992;52.084;5.412;2022-09-09T04:53:11;19.60;66.70
66190;DHT22;52992;52.084;5.412;2022-09-09T04:55:38;19.60;66.70
66190;DHT22;52992;52.084;5.412;2022-09-09T04:58:07;19.60;66.70
66190;DHT22;52992;52.084;5.412;2022-09-09T05:00:35;19.60;66.70
66190;DHT22;52992;52.084;5.412;2022-09-09T05:03:05;19.60;66.70
66190;DHT22;52992;52.084;5.412;2022-09-09T05:05:33;19.50;66.70
66190;DHT22;52992;52.084;5.412;2022-09-09T05:08:05;19.50;66.60
66190;DHT22;52992;52.084;5.412;2022-09-09T05:10:33;19.50;66.50
66190;DHT22;52992;52.084;5.412;2022-09-09T05:13:00;19.60;66.60
66190;DHT22;52992;52.084;5.412;2022-09-09T05:15:29;19.50;66.60
66190;DHT22;52992;52.084;5.412;2022-09-09T05:18:00;19.60;66.50
66190;DHT22;52992;52.084;5.412;2022-09-09T05:20:29;19.60;66.50
66190;DHT22;52992;52.084;5.412;2022-09-09T05:22:56;19.60;67.10
66190;DHT22;52992;52.084;5.412;2022-09-09T05:25:27;19.60;66.20
66190;DHT22;52992;52.084;5.412;2022-09-09T05:27:55;19.60;66.30
66190;DHT22;52992;52.084;5.412;2022-09-09T05:30:22;19.60;66.30
66190;DHT22;52992;52.084;5.412;2022-09-09T05:32:56;19.60;66.20
66190;DHT22;52992;52.084;5.412;2022-09-09T05:35:22;19.60;66.20
66190;DHT22;52992;52.084;5.412;2022-09-09T05:37:49;19.60;66.20
66190;DHT22;52992;52.084;5.412;2022-09-09T05:40:16;19.60;66.20
66190;DHT22;52992;52.084;5.412;2022-09-09T05:42:43;19.60;66.20
66190;DHT22;52992;52.084;5.412;2022-09-09T05:45:11;19.60;66.20
66190;DHT22;52992;52.084;5.412;2022-09-09T05:47:38;19.60;66.20
66190;DHT22;52992;52.084;5.412;2022-09-09T05:50:08;19.60;66.20
66190;DHT22;52992;52.084;5.412;2022-09-09T05:52:35;19.70;66.20
66190;DHT22;52992;52.084;5.412;2022-09-09T05:55:04;19.70;66.20
66190;DHT22;52992;52.084;5.412;2022-09-09T05:57:31;19.70;66.10
66190;DHT22;52992;52.084;5.412;2022-09-09T05:59:58;19.70;66.10
66190;DHT22;52992;52.084;5.412;2022-09-09T06:02:26;19.70;66.00
66190;DHT22;52992;52.084;5.412;2022-09-09T06:04:54;19.80;66.00
66190;DHT22;52992;52.084;5.412;2022-09-09T06:07:27;19.80;65.90
66190;DHT22;52992;52.084;5.412;2022-09-09T06:09:53;19.90;65.80
66190;DHT22;52992;52.084;5.412;2022-09-09T06:12:20;19.90;65.70
66190;DHT22;52992;52.084;5.412;2022-09-09T06:14:47;20.00;65.60
66190;DHT22;52992;52.084;5.412;2022-09-09T06:17:14;20.10;65.60
66190;DHT22;52992;52.084;5.412;2022-09-09T06:19:41;20.20;65.50
66190;DHT22;52992;52.084;5.412;2022-09-09T06:22:08;20.20;65.30
66190;DHT22;52992;52.084;5.412;2022-09-09T06:24:39;20.30;65.30
66190;DHT22;52992;52.084;5.412;2022-09-09T06:27:06;20.30;65.30
66190;DHT22;52992;52.084;5.412;2022-09-09T06:29:35;20.30;65.30
66190;DHT22;52992;52.084;5.412;2022-09-09T06:32:03;20.30;65.20
66190;DHT22;52992;52.084;5.412;2022-09-09T06:34:30;20.30;65.30
66190;DHT22;52992;52.084;5.412;2022-09-09T06:36:58;20.40;65.30
66190;DHT22;52992;52.084;5.412;2022-09-09T06:39:31;20.50;65.40
66190;DHT22;52992;52.084;5.412;2022-09-09T06:41:58;20.60;65.20
66190;DHT22;52992;52.084;5.412;2022-09-09T06:44:44;20.70;65.20
66190;DHT22;52992;52.084;5.412;2022-09-09T06:47:17;20.80;65.00
66190;DHT22;52992;52.084;5.412;2022-09-09T06:49:45;20.80;65.10
66190;DHT22;52992;52.084;5.412;2022-09-09T06:52:15;20.90;64.90
66190;DHT22;52992;52.084;5.412;2022-09-09T06:54:43;20.90;64.90
66190;DHT22;52992;52.084;5.412;2022-09-09T06:57:12;20.90;65.00
66190;DHT22;52992;52.084;5.412;2022-09-09T07:00:00;21.00;64.80
66190;DHT22;52992;52.084;5.412;2022-09-09T07:02:28;21.10;64.70
66190;DHT22;52992;52.084;5.412;2022-09-09T07:04:56;21.10;64.80
66190;DHT22;52992;52.084;5.412;2022-09-09T07:07:25;21.10;64.90
66190;DHT22;52992;52.084;5.412;2022-09-09T07:09:52;21.20;65.00
66190;DHT22;52992;52.084;5.412;2022-09-09T07:12:19;21.30;65.30
66190;DHT22;52992;52.084;5.412;2022-09-09T07:14:53;21.50;65.50
66190;DHT22;52992;52.084;5.412;2022-09-09T07:17:24;21.70;64.80
66190;DHT22;52992;52.084;5.412;2022-09-09T07:19:50;21.80;64.30
66190;DHT22;52992;52.084;5.412;2022-09-09T07:22:17;21.80;63.80
66190;DHT22;52992;52.084;5.412;2022-09-09T07:24:45;21.80;63.60
66190;DHT22;52992;52.084;5.412;2022-09-09T07:27:12;21.70;63.60
66190;DHT22;52992;52.084;5.412;2022-09-09T07:29:40;21.60;63.70
66190;DHT22;52992;52.084;5.412;2022-09-09T07:32:08;21.60;63.80
66190;DHT22;52992;52.084;5.412;2022-09-09T07:34:36;21.50;63.70
66190;DHT22;52992;52.084;5.412;2022-09-09T07:37:04;21.50;63.90
66190;DHT22;52992;52.084;5.412;2022-09-09T07:39:32;21.50;63.70
66190;DHT22;52992;52.084;5.412;2022-09-09T07:42:00;21.60;63.50
66190;DHT22;52992;52.084;5.412;2022-09-09T07:44:27;21.70;63.50
66190;DHT22;52992;52.084;5.412;2022-09-09T07:47:05;21.70;63.30
66190;DHT22;52992;52.084;5.412;2022-09-09T07:49:42;21.70;63.00
66190;DHT22;52992;52.084;5.412;2022-09-09T07:52:09;21.90;62.70
66190;DHT22;52992;52.084;5.412;2022-09-09T07:54:41;21.90;62.70
66190;DHT22;52992;52.084;5.412;2022-09-09T07:57:09;21.90;62.80
66190;DHT22;52992;52.084;5.412;2022-09-09T07:59:37;22.00;62.90
66190;DHT22;52992;52.084;5.412;2022-09-09T08:02:04;22.00;63.00
66190;DHT22;52992;52.084;5.412;2022-09-09T08:04:33;21.90;62.70
66190;DHT22;52992;52.084;5.412;2022-09-09T08:07:03;21.80;62.60
66190;DHT22;52992;52.084;5.412;2022-09-09T08:09:36;21.70;62.70
66190;DHT22;52992;52.084;5.412;2022-09-09T08:12:09;21.70;62.80
66190;DHT22;52992;52.084;5.412;2022-09-09T08:14:36;21.70;62.80
66190;DHT22;52992;52.084;5.412;2022-09-09T08:17:03;21.70;63.00
66190;DHT22;52992;52.084;5.412;2022-09-09T08:19:31;21.70;63.00
66190;DHT22;52992;52.084;5.412;2022-09-09T08:22:05;21.70;62.90
66190;DHT22;52992;52.084;5.412;2022-09-09T08:24:33;21.80;62.90
66190;DHT22;52992;52.084;5.412;2022-09-09T08:27:00;21.70;62.90
66190;DHT22;52992;52.084;5.412;2022-09-09T08:29:28;21.70;63.00
66190;DHT22;52992;52.084;5.412;2022-09-09T08:31:57;21.70;62.80
66190;DHT22;52992;52.084;5.412;2022-09-09T08:34:26;21.60;62.60
66190;DHT22;52992;52.084;5.412;2022-09-09T08:36:55;21.60;62.90
66190;DHT22;52992;52.084;5.412;2022-09-09T08:39:29;21.60;62.90
66190;DHT22;52992;52.084;5.412;2022-09-09T08:50:28;21.60;62.80
66190;DHT22;52992;52.084;5.412;2022-09-09T08:53:22;21.60;62.60
66190;DHT22;52992;52.084;5.412;2022-09-09T08:55:58;21.60;62.60
66190;DHT22;52992;52.084;5.412;2022-09-09T08:58:52;21.70;62.00
66190;DHT22;52992;52.084;5.412;2022-09-09T09:01:50;21.80;61.50
66190;DHT22;52992;52.084;5.412;2022-09-09T09:07:50;21.80;61.30
66190;DHT22;52992;52.084;5.412;2022-09-09T09:13:29;21.90;60.90
66190;DHT22;52992;52.084;5.412;2022-09-09T09:16:14;21.80;61.00
66190;DHT22;52992;52.084;5.412;2022-09-09T09:18:44;21.70;60.70
66190;DHT22;52992;52.084;5.412;2022-09-09T09:21:43;21.80;60.70
66190;DHT22;52992;52.084;5.412;2022-09-09T09:24:30;21.70;60.70
66190;DHT22;52992;52.084;5.412;2022-09-09T09:27:01;21.70;60.60
66190;DHT22;52992;52.084;5.412;2022-09-09T09:29:33;21.40;61.10
66190;DHT22;52992;52.084;5.412;2022-09-09T09:32:22;21.50;61.10
66190;DHT22;52992;52.084;5.412;2022-09-09T09:34:55;21.70;60.70
66190;DHT22;52992;52.084;5.412;2022-09-09T09:37:28;21.80;60.20
66190;DHT22;52992;52.084;5.412;2022-09-09T09:40:11;21.80;59.70
66190;DHT22;52992;52.084;5.412;2022-09-09T09:42:58;21.80;60.00
66190;DHT22;52992;52.084;5.412;2022-09-09T09:45:33;21.80;60.00
66190;DHT22;52992;52.084;5.412;2022-09-09T09:48:05;21.70;59.70
66190;DHT22;52992;52.084;5.412;2022-09-09T09:50:35;21.80;59.90
66190;DHT22;52992;52.084;5.412;2022-09-09T09:53:38;21.80;59.50
66190;DHT22;52992;52.084;5.412;2022-09-09T09:56:08;21.80;59.50
66190;DHT22;52992;52.084;5.412;2022-09-09T10:01:30;21.90;59.10
66190;DHT22;52992;52.084;5.412;2022-09-09T10:04:18;21.90;59.20
66190;DHT22;52992;52.084;5.412;2022-09-09T10:06:47;21.90;59.40
66190;DHT22;52992;52.084;5.412;2022-09-09T10:09:29;22.00;59.20
66190;DHT22;52992;52.084;5.412;2022-09-09T10:12:13;22.00;59.10
66190;DHT22;52992;52.084;5.412;2022-09-09T10:18:05;21.90;59.00
66190;DHT22;52992;52.084;5.412;2022-09-09T10:21:03;21.90;59.10
66190;DHT22;52992;52.084;5.412;2022-09-09T10:29:39;21.90;60.10
66190;DHT22;52992;52.084;5.412;2022-09-09T10:35:27;21.80;60.70
66190;DHT22;52992;52.084;5.412;2022-09-09T10:40:46;21.80;61.00
66190;DHT22;52992;52.084;5.412;2022-09-09T10:43:31;21.80;61.40
66190;DHT22;52992;52.084;5.412;2022-09-09T10:51:42;21.90;62.30
66190;DHT22;52992;52.084;5.412;2022-09-09T10:59:51;22.40;62.50
66190;DHT22;52992;52.084;5.412;2022-09-09T11:02:29;22.80;61.60
66190;DHT22;52992;52.084;5.412;2022-09-09T11:07:40;23.60;59.80
66190;DHT22;52992;52.084;5.412;2022-09-09T11:10:21;23.60;59.40
66190;DHT22;52992;52.084;5.412;2022-09-09T11:12:53;23.60;59.50
66190;DHT22;52992;52.084;5.412;2022-09-09T11:15:36;23.70;59.80
66190;DHT22;52992;52.084;5.412;2022-09-09T11:18:08;24.00;59.30
66190;DHT22;52992;52.084;5.412;2022-09-09T11:20:37;24.10;58.30
66190;DHT22;52992;52.084;5.412;2022-09-09T11:23:19;23.90;58.70
66190;DHT22;52992;52.084;5.412;2022-09-09T11:25:57;23.60;59.60
66190;DHT22;52992;52.084;5.412;2022-09-09T11:34:19;22.90;60.30
66190;DHT22;52992;52.084;5.412;2022-09-09T11:40:17;22.90;60.40
66190;DHT22;52992;52.084;5.412;2022-09-09T11:42:46;22.90;60.10
66190;DHT22;52992;52.084;5.412;2022-09-09T11:45:24;22.80;60.30
66190;DHT22;52992;52.084;5.412;2022-09-09T11:47:57;22.80;60.40
66190;DHT22;52992;52.084;5.412;2022-09-09T11:52:51;22.70;60.40
66190;DHT22;52992;52.084;5.412;2022-09-09T11:55:31;22.70;60.70
66190;DHT22;52992;52.084;5.412;2022-09-09T11:58:01;22.60;61.20
66190;DHT22;52992;52.084;5.412;2022-09-09T12:03:04;22.60;61.50
66190;DHT22;52992;52.084;5.412;2022-09-09T12:05:43;22.50;61.80
66190;DHT22;52992;52.084;5.412;2022-09-09T12:08:26;22.50;62.00
66190;DHT22;52992;52.084;5.412;2022-09-09T12:10:56;22.50;61.90
66190;DHT22;52992;52.084;5.412;2022-09-09T12:13:25;22.50;62.00
66190;DHT22;52992;52.084;5.412;2022-09-09T12:16:01;22.40;62.30
66190;DHT22;52992;52.084;5.412;2022-09-09T12:18:37;22.40;62.50
66190;DHT22;52992;52.084;5.412;2022-09-09T12:23:49;22.30;62.70
66190;DHT22;52992;52.084;5.412;2022-09-09T12:29:04;22.40;62.90
66190;DHT22;52992;52.084;5.412;2022-09-09T12:34:38;22.60;62.50
66190;DHT22;52992;52.084;5.412;2022-09-09T12:37:21;22.80;62.20
66190;DHT22;52992;52.084;5.412;2022-09-09T12:39:55;22.90;62.10
66190;DHT22;52992;52.084;5.412;2022-09-09T12:42:22;23.00;62.00
66190;DHT22;52992;52.084;5.412;2022-09-09T12:44:57;23.00;62.00
66190;DHT22;52992;52.084;5.412;2022-09-09T12:50:00;23.00;62.20
66190;DHT22;52992;52.084;5.412;2022-09-09T12:52:33;23.00;61.90
66190;DHT22;52992;52.084;5.412;2022-09-09T12:55:03;23.00;61.70
66190;DHT22;52992;52.084;5.412;2022-09-09T12:57:38;22.90;61.40
66190;DHT22;52992;52.084;5.412;2022-09-09T13:00:15;23.00;61.40
66190;DHT22;52992;52.084;5.412;2022-09-09T13:05:22;23.30;59.60
66190;DHT22;52992;52.084;5.412;2022-09-09T13:07:50;23.40;59.00
66190;DHT22;52992;52.084;5.412;2022-09-09T13:10:26;23.40;58.90
66190;DHT22;52992;52.084;5.412;2022-09-09T13:13:26;23.40;58.80
66190;DHT22;52992;52.084;5.412;2022-09-09T13:15:56;23.30;58.90
66190;DHT22;52992;52.084;5.412;2022-09-09T13:18:28;23.20;59.00
66190;DHT22;52992;52.084;5.412;2022-09-09T13:20:56;23.20;59.20
66190;DHT22;52992;52.084;5.412;2022-09-09T13:23:28;23.10;59.40
66190;DHT22;52992;52.084;5.412;2022-09-09T13:26:01;23.20;59.30
66190;DHT22;52992;52.084;5.412;2022-09-09T13:28:29;23.30;58.90
66190;DHT22;52992;52.084;5.412;2022-09-09T13:31:04;23.40;58.60
66190;DHT22;52992;52.084;5.412;2022-09-09T13:33:35;23.60;58.20
66190;DHT22;52992;52.084;5.412;2022-09-09T13:36:06;23.70;57.70
66190;DHT22;52992;52.084;5.412;2022-09-09T13:41:23;23.70;57.80
66190;DHT22;52992;52.084;5.412;2022-09-09T13:43:51;23.70;58.10
66190;DHT22;52992;52.084;5.412;2022-09-09T13:51:43;23.60;58.30
66190;DHT22;52992;52.084;5.412;2022-09-09T13:54:15;23.60;58.30
66190;DHT22;52992;52.084;5.412;2022-09-09T13:56:43;23.60;58.20
66190;DHT22;52992;52.084;5.412;2022-09-09T13:59:15;23.60;58.10
66190;DHT22;52992;52.084;5.412;2022-09-09T14:01:42;23.60;58.10
66190;DHT22;52992;52.084;5.412;2022-09-09T14:04:09;23.60;58.10
66190;DHT22;52992;52.084;5.412;2022-09-09T14:06:37;23.60;58.10
66190;DHT22;52992;52.084;5.412;2022-09-09T14:09:11;23.60;58.30
66190;DHT22;52992;52.084;5.412;2022-09-09T14:11:38;23.50;58.20
66190;DHT22;52992;52.084;5.412;2022-09-09T14:14:05;23.60;58.20
66190;DHT22;52992;52.084;5.412;2022-09-09T14:16:32;23.60;58.20
66190;DHT22;52992;52.084;5.412;2022-09-09T14:18:59;23.70;58.30
66190;DHT22;52992;52.084;5.412;2022-09-09T14:21:27;23.70;58.00
66190;DHT22;52992;52.084;5.412;2022-09-09T14:23:54;23.70;58.20
66190;DHT22;52992;52.084;5.412;2022-09-09T14:26:21;23.70;58.60
66190;DHT22;52992;52.084;5.412;2022-09-09T14:28:48;23.80;59.10
66190;DHT22;52992;52.084;5.412;2022-09-09T14:31:24;23.80;58.90
66190;DHT22;52992;52.084;5.412;2022-09-09T14:33:51;23.70;59.50
66190;DHT22;52992;52.084;5.412;2022-09-09T14:36:18;23.70;60.00
66190;DHT22;52992;52.084;5.412;2022-09-09T14:38:45;23.60;60.40
66190;DHT22;52992;52.084;5.412;2022-09-09T14:41:14;23.60;60.60
66190;DHT22;52992;52.084;5.412;2022-09-09T14:43:45;23.60;60.50
66190;DHT22;52992;52.084;5.412;2022-09-09T14:46:14;23.50;60.40
66190;DHT22;52992;52.084;5.412;2022-09-09T14:48:42;23.50;60.70
66190;DHT22;52992;52.084;5.412;2022-09-09T14:51:16;23.50;60.60
66190;DHT22;52992;52.084;5.412;2022-09-09T14:53:43;23.50;60.70
66190;DHT22;52992;52.084;5.412;2022-09-09T14:56:11;23.40;60.60
66190;DHT22;52992;52.084;5.412;2022-09-09T14:58:39;23.40;60.70
66190;DHT22;52992;52.084;5.412;2022-09-09T15:01:09;23.20;62.30
66190;DHT22;52992;52.084;5.412;2022-09-09T15:03:38;22.80;64.20
66190;DHT22;52992;52.084;5.412;2022-09-09T15:06:07;22.50;65.80
66190;DHT22;52992;52.084;5.412;2022-09-09T15:08:36;22.40;67.30
66190;DHT22;52992;52.084;5.412;2022-09-09T15:11:08;22.40;67.80
66190;DHT22;52992;52.084;5.412;2022-09-09T15:13:37;22.30;68.20
66190;DHT22;52992;52.084;5.412;2022-09-09T15:16:06;22.30;68.60
66190;DHT22;52992;52.084;5.412;2022-09-09T15:18:33;22.40;68.60
66190;DHT22;52992;52.084;5.412;2022-09-09T15:21:05;22.40;68.40
66190;DHT22;52992;52.084;5.412;2022-09-09T15:23:33;22.40;68.20
66190;DHT22;52992;52.084;5.412;2022-09-09T15:26:00;22.30;67.10
66190;DHT22;52992;52.084;5.412;2022-09-09T15:28:27;22.20;66.60
66190;DHT22;52992;52.084;5.412;2022-09-09T15:30:54;22.20;66.50
66190;DHT22;52992;52.084;5.412;2022-09-09T15:33:21;22.20;66.60
66190;DHT22;52992;52.084;5.412;2022-09-09T15:35:48;22.30;66.70
66190;DHT22;52992;52.084;5.412;2022-09-09T15:38:16;22.30;66.40
66190;DHT22;52992;52.084;5.412;2022-09-09T15:40:43;22.40;66.20
66190;DHT22;52992;52.084;5.412;2022-09-09T15:43:10;22.40;65.70
66190;DHT22;52992;52.084;5.412;2022-09-09T15:45:37;22.30;65.40
66190;DHT22;52992;52.084;5.412;2022-09-09T15:48:04;22.30;65.50
66190;DHT22;52992;52.084;5.412;2022-09-09T15:50:31;22.30;65.50
66190;DHT22;52992;52.084;5.412;2022-09-09T15:52:59;22.30;65.40
66190;DHT22;52992;52.084;5.412;2022-09-09T15:55:26;22.30;65.60
66190;DHT22;52992;52.084;5.412;2022-09-09T15:57:53;22.30;65.30
66190;DHT22;52992;52.084;5.412;2022-09-09T16:00:20;22.30;65.30
66190;DHT22;52992;52.084;5.412;2022-09-09T16:02:47;22.30;64.90
66190;DHT22;52992;52.084;5.412;2022-09-09T16:05:15;22.40;64.80
66190;DHT22;52992;52.084;5.412;2022-09-09T16:07:41;22.50;65.10
66190;DHT22;52992;52.084;5.412;2022-09-09T16:10:09;22.60;65.00
66190;DHT22;52992;52.084;5.412;2022-09-09T16:12:37;22.70;65.10
66190;DHT22;52992;52.084;5.412;2022-09-09T16:15:04;22.80;64.60
66190;DHT22;52992;52.084;5.412;2022-09-09T16:17:31;22.90;64.10
66190;DHT22;52992;52.084;5.412;2022-09-09T16:20:04;22.90;63.40
66190;DHT22;52992;52.084;5.412;2022-09-09T16:22:33;22.80;63.00
66190;DHT22;52992;52.084;5.412;2022-09-09T16:24:59;22.90;63.20
66190;DHT22;52992;52.084;5.412;2022-09-09T16:27:26;22.80;63.20
66190;DHT22;52992;52.084;5.412;2022-09-09T16:29:53;22.80;63.20
66190;DHT22;52992;52.084;5.412;2022-09-09T16:32:20;22.80;63.20
66190;DHT22;52992;52.084;5.412;2022-09-09T16:34:47;22.80;63.40
66190;DHT22;52992;52.084;5.412;2022-09-09T16:37:13;22.80;63.40
66190;DHT22;52992;52.084;5.412;2022-09-09T16:39:40;22.80;63.40
66190;DHT22;52992;52.084;5.412;2022-09-09T16:42:07;22.70;63.30
66190;DHT22;52992;52.084;5.412;2022-09-09T16:44:34;22.70;63.40
66190;DHT22;52992;52.084;5.412;2022-09-09T16:47:00;22.60;63.30
66190;DHT22;52992;52.084;5.412;2022-09-09T16:49:27;22.60;63.20
66190;DHT22;52992;52.084;5.412;2022-09-09T16:51:58;22.60;64.20
66190;DHT22;52992;52.084;5.412;2022-09-09T16:54:25;22.60;63.90
66190;DHT22;52992;52.084;5.412;2022-09-09T16:56:53;22.70;64.10
66190;DHT22;52992;52.084;5.412;2022-09-09T16:59:21;22.60;64.00
66190;DHT22;52992;52.084;5.412;2022-09-09T17:01:50;22.60;64.10
66190;DHT22;52992;52.084;5.412;2022-09-09T17:04:19;22.60;64.10
66190;DHT22;52992;52.084;5.412;2022-09-09T17:06:48;22.70;64.20
66190;DHT22;52992;52.084;5.412;2022-09-09T17:09:19;22.60;64.00
66190;DHT22;52992;52.084;5.412;2022-09-09T17:11:47;22.60;64.00
66190;DHT22;52992;52.084;5.412;2022-09-09T17:14:17;22.60;64.10
66190;DHT22;52992;52.084;5.412;2022-09-09T17:16:44;22.60;64.10
66190;DHT22;52992;52.084;5.412;2022-09-09T17:19:11;22.60;64.10
66190;DHT22;52992;52.084;5.412;2022-09-09T17:21:38;22.60;64.10
66190;DHT22;52992;52.084;5.412;2022-09-09T17:24:26;22.50;64.20
66190;DHT22;52992;52.084;5.412;2022-09-09T17:26:53;22.60;64.20
66190;DHT22;52992;52.084;5.412;2022-09-09T17:29:21;22.60;64.20
66190;DHT22;52992;52.084;5.412;2022-09-09T17:31:48;22.50;64.20
66190;DHT22;52992;52.084;5.412;2022-09-09T17:34:15;22.50;64.20
66190;DHT22;52992;52.084;5.412;2022-09-09T17:36:41;22.50;64.30
66190;DHT22;52992;52.084;5.412;2022-09-09T17:39:08;22.50;64.40
66190;DHT22;52992;52.084;5.412;2022-09-09T17:41:39;22.40;64.40
66190;DHT22;52992;52.084;5.412;2022-09-09T17:44:07;22.50;64.40
66190;DHT22;52992;52.084;5.412;2022-09-09T17:46:41;22.50;64.30
66190;DHT22;52992;52.084;5.412;2022-09-09T17:49:10;22.40;64.20
66190;DHT22;52992;52.084;5.412;2022-09-09T17:51:39;22.40;64.20
66190;DHT22;52992;52.084;5.412;2022-09-09T17:54:10;22.40;64.20
66190;DHT22;52992;52.084;5.412;2022-09-09T17:56:39;22.30;64.10